Etusivu
METAR-TAF:

METAR-TAF

Lentoasemat :

Sierra Blanca Regional Airport

Ruidoso, New Mexico, Yhdysvallat

Leveyspiiri: 33-28N, Pituuspiiri: 105-32W, korkeus merenpinnasta: 2076 m

Tämänhetkinen sää

Tämä raportti tehtiin 18 minuuttia sitten, kello 17.55 UTC
Tuuli 12 kn lännestä/luoteesta puuskistuen 23 kn:hen
Lämpötila 21°C
Kosteus 16%
Ilmanpaine 1022 hPa
Näkyvyys: 16.1 km
selkeää

METAR: KSRR 261755Z AUTO 30012G23KT 10SM CLR 21/M06 A3017 RMK AO2

Aika: 12:13 (18:13 UTC)


TAF: puuttuu

Säähavainnot ja -ennusteet yli 4000 lentoasemalta (METAR- ja TAF-raportit).

Käytössä olevat sääasemat on merkitty karttaan keltaisilla ja punaisilla pisteillä.

Aseta hiiri pisteen päälle nähdäksesi sääaseman nimen.

Klikkaa sitten nähdäksesi säähavainnot ja -ennusteet.

Kartan vaihtaminen: klikkaa mustalla rastilla varustettuja vihreitä pisteitä, niin voit zoomata sisään; viivalla varustettua vihreää pistettä, niin voit zoomata ulos tai vihreitä nuolia, niin pääset viereisille kartoille.


METAR-TAF: